createdAt,value
2019-04-27T00:01:27.191Z,7.10
2019-04-27T00:04:04.100Z,7.06
2019-04-27T00:06:38.235Z,7.02
2019-04-27T00:09:11.626Z,6.96
2019-04-27T00:11:45.546Z,6.92
2019-04-27T00:14:15.046Z,7.00
2019-04-27T00:16:54.582Z,7.01
2019-04-27T00:19:36.842Z,7.04
2019-04-27T00:22:12.977Z,7.00
2019-04-27T00:24:44.212Z,7.01
2019-04-27T00:27:13.362Z,7.06
2019-04-27T00:29:43.159Z,7.14
2019-04-27T00:32:13.176Z,7.14
2019-04-27T00:34:43.155Z,7.11
2019-04-27T00:37:23.766Z,7.04
2019-04-27T00:40:05.638Z,7.04
2019-04-27T00:42:35.729Z,7.03
2019-04-27T00:45:06.217Z,7.10
2019-04-27T00:47:35.061Z,7.09
2019-04-27T00:50:04.779Z,7.08
2019-04-27T00:52:34.872Z,7.03
2019-04-27T00:55:04.428Z,7.05
2019-04-27T00:57:43.628Z,7.13
2019-04-27T01:00:16.859Z,7.16
2019-04-27T01:02:47.287Z,7.19
2019-04-27T01:05:17.488Z,7.04
2019-04-27T01:07:46.207Z,6.97
2019-04-27T01:10:14.833Z,6.94
2019-04-27T01:12:43.319Z,6.90
2019-04-27T01:15:13.699Z,6.84
2019-04-27T01:17:42.398Z,6.78
2019-04-27T01:20:11.324Z,6.75
2019-04-27T01:22:39.911Z,6.74
2019-04-27T01:25:08.890Z,6.75
2019-04-27T01:27:39.404Z,6.74
2019-04-27T01:30:11.023Z,6.73
2019-04-27T01:32:39.509Z,6.73
2019-04-27T01:35:08.692Z,6.69
2019-04-27T01:37:38.665Z,6.67
2019-04-27T01:40:07.695Z,6.70
2019-04-27T01:42:36.250Z,6.74
2019-04-27T01:45:08.564Z,6.72
2019-04-27T01:47:37.039Z,6.66
2019-04-27T01:50:08.765Z,6.63
2019-04-27T01:52:38.527Z,6.59
2019-04-27T01:55:08.644Z,6.54
2019-04-27T01:57:38.628Z,6.57
2019-04-27T02:00:19.267Z,6.57
2019-04-27T02:02:49.660Z,6.55
2019-04-27T02:05:19.911Z,6.51
2019-04-27T02:07:49.103Z,6.48
2019-04-27T02:10:19.122Z,6.53
2019-04-27T02:12:48.710Z,6.54
2019-04-27T02:15:19.103Z,6.51
2019-04-27T02:17:49.017Z,6.45
2019-04-27T02:20:19.635Z,6.49
2019-04-27T02:22:48.484Z,6.51
2019-04-27T02:25:18.975Z,6.56
2019-04-27T02:27:50.528Z,6.57
2019-04-27T02:30:26.324Z,6.55
2019-04-27T02:33:05.476Z,6.54
2019-04-27T02:35:33.970Z,6.50
2019-04-27T02:38:02.533Z,6.54
2019-04-27T02:40:52.021Z,6.54
2019-04-27T02:43:22.283Z,6.51
2019-04-27T02:45:51.004Z,6.38
2019-04-27T02:48:20.075Z,6.34
2019-04-27T02:50:50.322Z,6.32
2019-04-27T02:53:20.511Z,6.35
2019-04-27T02:55:49.935Z,6.39
2019-04-27T02:58:21.579Z,6.31
2019-04-27T03:00:50.122Z,6.24
2019-04-27T03:03:20.406Z,6.24
2019-04-27T03:05:50.278Z,6.26
2019-04-27T03:08:20.078Z,6.28
2019-04-27T03:10:50.303Z,6.26
2019-04-27T03:13:20.793Z,6.20
2019-04-27T03:16:12.998Z,6.21
2019-04-27T03:19:10.090Z,6.30
2019-04-27T03:21:26.007Z,6.35
2019-04-27T03:23:56.353Z,6.35
2019-04-27T03:26:26.608Z,6.37
2019-04-27T03:28:55.192Z,6.42
2019-04-27T03:31:23.860Z,6.40
2019-04-27T03:33:58.686Z,6.45
2019-04-27T03:36:22.851Z,6.50
2019-04-27T03:38:51.503Z,6.49
2019-04-27T03:41:20.141Z,6.52
2019-04-27T03:43:50.346Z,6.54
2019-04-27T03:46:20.433Z,6.60
2019-04-27T03:48:49.826Z,6.61
2019-04-27T03:51:22.849Z,6.62
2019-04-27T03:53:56.972Z,6.59
2019-04-27T03:56:25.024Z,6.55
2019-04-27T03:59:10.449Z,6.56
2019-04-27T04:01:39.707Z,6.53
2019-04-27T04:04:10.485Z,6.44
2019-04-27T04:06:40.041Z,6.42
2019-04-27T04:09:10.455Z,6.40
2019-04-27T04:11:40.620Z,6.36
2019-04-27T04:14:20.252Z,6.27
2019-04-27T04:16:53.583Z,6.30
2019-04-27T04:19:22.089Z,6.33
2019-04-27T04:21:50.600Z,6.31
2019-04-27T04:24:19.942Z,6.23
2019-04-27T04:26:50.299Z,6.17
2019-04-27T04:29:20.234Z,6.19
2019-04-27T04:31:50.298Z,6.21
2019-04-27T04:34:19.959Z,6.25
2019-04-27T04:36:50.374Z,6.23
2019-04-27T04:39:19.811Z,6.21
2019-04-27T04:42:06.013Z,6.18
2019-04-27T04:44:54.133Z,6.10
2019-04-27T04:47:30.798Z,6.11
2019-04-27T04:50:08.463Z,6.21
2019-04-27T04:52:29.623Z,6.26
2019-04-27T04:54:59.328Z,6.24
2019-04-27T04:57:29.941Z,6.18
2019-04-27T04:59:59.364Z,6.17
2019-04-27T05:02:29.316Z,6.21
2019-04-27T05:04:59.091Z,6.33
2019-04-27T05:07:27.612Z,6.42
2019-04-27T05:09:56.119Z,6.39
2019-04-27T05:12:24.621Z,6.31
2019-04-27T05:14:53.134Z,6.33
2019-04-27T05:17:21.624Z,6.46
2019-04-27T05:19:50.807Z,6.54
2019-04-27T05:22:19.607Z,6.64
2019-04-27T05:24:49.830Z,6.62
2019-04-27T05:27:19.142Z,6.65
2019-04-27T05:29:48.856Z,6.70
2019-04-27T05:32:18.874Z,6.73
2019-04-27T05:34:49.521Z,6.83
2019-04-27T05:37:27.560Z,6.90
2019-04-27T05:39:48.759Z,6.84
2019-04-27T05:42:19.987Z,6.84
2019-04-27T05:45:15.345Z,6.84
2019-04-27T05:47:48.477Z,6.92
2019-04-27T05:50:18.280Z,6.95
2019-04-27T05:52:49.521Z,6.99
2019-04-27T05:55:19.207Z,6.97
2019-04-27T05:57:49.030Z,7.05
2019-04-27T06:00:20.268Z,7.12
2019-04-27T06:02:48.861Z,7.14
2019-04-27T06:05:18.925Z,7.18
2019-04-27T06:07:48.765Z,7.21
2019-04-27T06:10:17.371Z,7.26
2019-04-27T06:12:45.898Z,7.32
2019-04-27T06:15:15.730Z,7.33
2019-04-27T06:17:44.254Z,7.41
2019-04-27T06:20:13.102Z,7.44
2019-04-27T06:22:43.197Z,7.51
2019-04-27T06:25:12.158Z,7.65
2019-04-27T06:27:40.650Z,7.73
2019-04-27T06:30:09.642Z,7.75
2019-04-27T06:32:39.522Z,7.78
2019-04-27T06:35:12.093Z,7.76
2019-04-27T06:37:39.382Z,7.75
2019-04-27T06:40:09.765Z,7.73
2019-04-27T06:42:39.845Z,7.81
2019-04-27T06:45:13.026Z,7.88
2019-04-27T06:47:40.921Z,7.95
2019-04-27T06:50:10.290Z,8.02
2019-04-27T06:52:39.121Z,8.04
2019-04-27T06:55:09.354Z,7.97
2019-04-27T06:57:39.158Z,7.95
2019-04-27T07:00:09.058Z,8.01
2019-04-27T07:02:39.369Z,8.09
2019-04-27T07:05:08.932Z,8.09
2019-04-27T07:07:39.606Z,8.07
2019-04-27T07:10:08.729Z,8.12
2019-04-27T07:12:41.103Z,8.19
2019-04-27T07:15:11.624Z,8.25
2019-04-27T07:17:40.174Z,8.31
2019-04-27T07:20:09.165Z,8.38
2019-04-27T07:22:39.556Z,8.45
2019-04-27T07:25:09.019Z,8.57
2019-04-27T07:27:39.423Z,8.68
2019-04-27T07:30:11.902Z,8.76
2019-04-27T07:32:39.092Z,8.87
2019-04-27T07:35:09.638Z,8.93
2019-04-27T07:37:39.318Z,9.00
2019-04-27T07:40:09.103Z,9.05
2019-04-27T07:42:40.876Z,9.06
2019-04-27T07:45:15.444Z,8.96
2019-04-27T07:47:45.748Z,8.88
2019-04-27T07:50:14.470Z,8.87
2019-04-27T07:52:43.004Z,8.89
2019-04-27T07:55:11.643Z,8.88
2019-04-27T07:57:40.144Z,8.87
2019-04-27T08:00:09.562Z,8.97
2019-04-27T08:02:39.038Z,9.06
2019-04-27T08:05:09.372Z,9.16
2019-04-27T08:07:39.144Z,9.32
2019-04-27T08:10:09.632Z,9.44
2019-04-27T08:12:38.706Z,9.51
2019-04-27T08:15:08.871Z,9.65
2019-04-27T08:17:37.998Z,9.77
2019-04-27T08:20:09.078Z,9.85
2019-04-27T08:22:38.959Z,9.92
2019-04-27T08:25:09.535Z,9.98
2019-04-27T08:27:49.342Z,10.04
2019-04-27T08:30:35.621Z,10.14
2019-04-27T08:33:05.890Z,10.17
2019-04-27T08:35:34.461Z,10.16
2019-04-27T08:38:03.026Z,10.18
2019-04-27T08:40:31.589Z,10.27
2019-04-27T08:43:00.135Z,10.28
2019-04-27T08:45:29.281Z,10.26
2019-04-27T08:47:59.441Z,10.24
2019-04-27T08:50:28.608Z,10.24
2019-04-27T08:52:57.319Z,10.27
2019-04-27T08:55:26.012Z,10.27
2019-04-27T08:57:54.543Z,10.21
2019-04-27T09:00:25.987Z,10.17
2019-04-27T09:02:54.562Z,10.21
2019-04-27T09:05:26.112Z,10.26
2019-04-27T09:08:13.841Z,10.27
2019-04-27T09:10:44.486Z,10.22
2019-04-27T09:13:23.195Z,10.22
2019-04-27T09:16:05.038Z,10.16
2019-04-27T09:18:34.392Z,10.14
2019-04-27T09:21:05.746Z,10.09
2019-04-27T09:23:34.243Z,10.13
2019-04-27T09:26:02.746Z,10.16
2019-04-27T09:28:31.226Z,10.22
2019-04-27T09:30:59.752Z,10.31
2019-04-27T09:33:28.262Z,10.38
2019-04-27T09:35:56.859Z,10.40
2019-04-27T09:38:26.555Z,10.40
2019-04-27T09:40:57.848Z,10.41
2019-04-27T09:43:26.364Z,10.41
2019-04-27T09:45:55.822Z,10.42
2019-04-27T09:48:25.951Z,10.45
2019-04-27T09:50:55.983Z,10.49
2019-04-27T09:53:24.666Z,10.54
2019-04-27T09:55:53.135Z,10.50
2019-04-27T09:58:21.717Z,10.50
2019-04-27T10:00:50.206Z,10.59
2019-04-27T10:03:18.726Z,10.59
2019-04-27T10:05:47.244Z,10.69
2019-04-27T10:08:16.956Z,10.79
2019-04-27T10:10:46.441Z,10.89
2019-04-27T10:13:15.780Z,10.99
2019-04-27T10:15:45.942Z,11.14
2019-04-27T10:18:16.344Z,11.15
2019-04-27T10:20:56.919Z,10.96
2019-04-27T10:23:15.208Z,10.91
2019-04-27T10:25:43.687Z,10.99
2019-04-27T10:28:12.205Z,11.01
2019-04-27T10:30:45.670Z,11.05
2019-04-27T10:33:15.942Z,10.95
2019-04-27T10:35:44.197Z,11.09
2019-04-27T10:38:12.693Z,10.99
2019-04-27T10:40:41.243Z,10.90
2019-04-27T10:43:09.757Z,10.84
2019-04-27T10:45:38.265Z,10.79
2019-04-27T10:48:06.831Z,10.76
2019-04-27T10:50:36.557Z,10.72
2019-04-27T10:53:06.955Z,10.83
2019-04-27T10:55:36.299Z,10.90
2019-04-27T10:58:05.447Z,11.00
2019-04-27T11:00:36.820Z,11.24
2019-04-27T11:03:06.638Z,11.38
2019-04-27T11:05:52.858Z,11.30
2019-04-27T11:08:21.332Z,11.33
2019-04-27T11:10:49.974Z,11.49
2019-04-27T11:13:18.564Z,11.47
2019-04-27T11:15:47.196Z,11.50
2019-04-27T11:18:16.653Z,11.62
2019-04-27T11:20:46.879Z,11.76
2019-04-27T11:23:16.369Z,11.77
2019-04-27T11:25:46.837Z,11.85
2019-04-27T11:28:15.727Z,11.85
2019-04-27T11:30:44.193Z,11.86
2019-04-27T11:33:12.705Z,11.96
2019-04-27T11:35:51.337Z,12.03
2019-04-27T11:38:19.849Z,12.12
2019-04-27T11:40:48.406Z,12.16
2019-04-27T11:43:16.898Z,12.23
2019-04-27T11:45:45.846Z,12.32
2019-04-27T11:48:16.043Z,12.43
2019-04-27T11:50:45.870Z,12.54
2019-04-27T11:53:22.792Z,12.53
2019-04-27T11:55:45.155Z,12.35
2019-04-27T11:58:13.686Z,12.30
2019-04-27T12:00:42.246Z,12.24
2019-04-27T12:03:10.721Z,12.32
2019-04-27T12:05:39.244Z,12.44
2019-04-27T12:08:07.733Z,12.50
2019-04-27T12:10:36.464Z,12.61
2019-04-27T12:13:05.766Z,12.58
2019-04-27T12:15:36.178Z,12.71
2019-04-27T12:18:08.910Z,12.86
2019-04-27T12:20:35.871Z,13.07
2019-04-27T12:23:06.374Z,13.14
2019-04-27T12:25:37.096Z,13.02
2019-04-27T12:28:18.906Z,13.17
2019-04-27T12:30:55.053Z,13.40
2019-04-27T12:33:23.662Z,13.42
2019-04-27T12:35:52.228Z,13.66
2019-04-27T12:38:20.874Z,13.86
2019-04-27T12:40:49.383Z,13.88
2019-04-27T12:43:18.029Z,13.91
2019-04-27T12:45:46.536Z,13.95
2019-04-27T12:48:15.194Z,13.89
2019-04-27T12:50:43.763Z,13.98
2019-04-27T12:53:16.814Z,14.18
2019-04-27T12:55:52.538Z,14.27
2019-04-27T12:58:34.222Z,14.38
2019-04-27T13:01:07.592Z,14.37
2019-04-27T13:03:36.451Z,14.65
2019-04-27T13:06:04.991Z,14.81
2019-04-27T13:08:35.619Z,14.85
2019-04-27T13:11:05.840Z,14.92
2019-04-27T13:13:34.151Z,14.69
2019-04-27T13:16:02.715Z,14.46
2019-04-27T13:18:31.305Z,14.24
2019-04-27T13:20:59.784Z,13.81
2019-04-27T13:23:28.636Z,13.50
2019-04-27T13:25:57.184Z,13.38
2019-04-27T13:28:25.748Z,13.28
2019-04-27T13:30:55.868Z,13.27
2019-04-27T13:33:26.226Z,13.19
2019-04-27T13:35:54.848Z,13.32
2019-04-27T13:38:23.357Z,13.41
2019-04-27T13:41:08.347Z,13.54
2019-04-27T13:43:37.907Z,13.48
2019-04-27T13:46:12.091Z,13.47
2019-04-27T13:48:58.373Z,13.70
2019-04-27T13:51:34.637Z,13.84
2019-04-27T13:54:14.993Z,13.95
2019-04-27T13:56:33.453Z,14.09
2019-04-27T13:59:03.337Z,14.13
2019-04-27T14:01:32.919Z,14.18
2019-04-27T14:04:01.427Z,14.32
2019-04-27T14:06:29.923Z,14.42
2019-04-27T14:08:58.918Z,14.43
2019-04-27T14:11:29.020Z,14.50
2019-04-27T14:13:58.211Z,14.57
2019-04-27T14:16:26.803Z,14.69
2019-04-27T14:18:55.311Z,14.75
2019-04-27T14:21:23.836Z,14.69
2019-04-27T14:23:52.307Z,14.84
2019-04-27T14:26:20.825Z,14.81
2019-04-27T14:28:50.004Z,14.76
2019-04-27T14:31:18.947Z,14.85
2019-04-27T14:33:48.436Z,14.89
2019-04-27T14:36:18.274Z,14.88
2019-04-27T14:38:47.976Z,14.80
2019-04-27T14:41:19.137Z,14.66
2019-04-27T14:43:48.265Z,14.62
2019-04-27T14:46:18.743Z,14.75
2019-04-27T14:48:47.238Z,14.88
2019-04-27T14:51:15.795Z,14.89
2019-04-27T14:53:44.352Z,14.79
2019-04-27T14:56:12.910Z,14.66
2019-04-27T14:58:41.468Z,14.64
2019-04-27T15:01:10.065Z,14.67
2019-04-27T15:03:38.627Z,14.75
2019-04-27T15:06:07.102Z,14.76
2019-04-27T15:08:38.386Z,14.86
2019-04-27T15:11:10.450Z,14.76
2019-04-27T15:13:37.944Z,14.39
2019-04-27T15:16:08.215Z,14.37
2019-04-27T15:18:39.829Z,14.36
2019-04-27T15:21:10.385Z,14.35
2019-04-27T15:23:38.966Z,14.42
2019-04-27T15:26:07.529Z,14.52
2019-04-27T15:28:37.706Z,14.51
2019-04-27T15:31:09.798Z,14.46
2019-04-27T15:33:46.756Z,14.44
2019-04-27T15:36:29.496Z,14.49
2019-04-27T15:38:59.656Z,14.56
2019-04-27T15:41:38.443Z,14.53
2019-04-27T15:44:09.442Z,14.56
2019-04-27T15:46:39.090Z,14.45
2019-04-27T15:49:11.328Z,14.30
2019-04-27T15:51:38.261Z,14.04
2019-04-27T15:54:06.982Z,13.67
2019-04-27T15:56:36.876Z,13.43
2019-04-27T15:59:05.686Z,13.33
2019-04-27T16:01:35.691Z,13.20
2019-04-27T16:04:07.680Z,13.21
2019-04-27T16:06:35.205Z,13.16
2019-04-27T16:09:07.701Z,13.01
2019-04-27T16:11:36.219Z,12.84
2019-04-27T16:14:06.721Z,12.81
2019-04-27T16:16:35.070Z,12.64
2019-04-27T16:19:08.860Z,12.51
2019-04-27T16:21:33.939Z,12.30
2019-04-27T16:24:02.531Z,12.16
2019-04-27T16:26:31.117Z,11.91
2019-04-27T16:28:59.718Z,11.80
2019-04-27T16:31:31.522Z,11.77
2019-04-27T16:34:02.592Z,11.68
2019-04-27T16:36:29.065Z,11.53
2019-04-27T16:39:03.665Z,11.58
2019-04-27T16:41:37.468Z,11.56
2019-04-27T16:44:06.984Z,11.50
2019-04-27T16:46:39.415Z,11.45
2019-04-27T16:49:07.368Z,11.40
2019-04-27T16:51:37.855Z,11.26
2019-04-27T16:54:06.150Z,11.21
2019-04-27T16:56:34.729Z,11.10
2019-04-27T16:59:25.830Z,10.86
2019-04-27T17:01:33.843Z,10.73
2019-04-27T17:04:06.488Z,10.74
2019-04-27T17:06:32.810Z,10.70
2019-04-27T17:09:05.654Z,10.60
2019-04-27T17:11:31.796Z,10.55
2019-04-27T17:14:04.882Z,10.53
2019-04-27T17:16:35.037Z,10.50
2019-04-27T17:19:09.444Z,10.51
2019-04-27T17:21:41.113Z,10.54
2019-04-27T17:24:09.158Z,10.51
2019-04-27T17:26:40.245Z,10.48
2019-04-27T17:29:16.118Z,10.44
2019-04-27T17:31:41.582Z,10.43
2019-04-27T17:34:10.188Z,10.39
2019-04-27T17:36:40.297Z,10.27
2019-04-27T17:39:10.321Z,10.21
2019-04-27T17:41:42.216Z,10.16
2019-04-27T17:44:12.846Z,10.16
2019-04-27T17:46:42.763Z,10.11
2019-04-27T17:49:09.848Z,10.12
2019-04-27T17:51:42.912Z,10.12
2019-04-27T17:54:11.388Z,10.17
2019-04-27T17:56:48.356Z,10.20
2019-04-27T17:59:10.312Z,10.15
2019-04-27T18:01:39.416Z,10.12
2019-04-27T18:04:10.431Z,10.12
2019-04-27T18:06:39.013Z,10.17
2019-04-27T18:09:09.905Z,10.14
2019-04-27T18:11:38.590Z,10.14
2019-04-27T18:14:11.173Z,10.16
2019-04-27T18:16:38.052Z,10.16
2019-04-27T18:19:11.865Z,10.15
2019-04-27T18:21:42.186Z,10.12
2019-04-27T18:24:14.780Z,10.04
2019-04-27T18:26:49.568Z,9.96
2019-04-27T18:29:15.182Z,9.90
2019-04-27T18:31:46.463Z,9.80
2019-04-27T18:34:15.349Z,9.73
2019-04-27T18:36:44.963Z,9.70
2019-04-27T18:39:13.880Z,9.71
2019-04-27T18:41:49.308Z,9.71
2019-04-27T18:44:12.683Z,9.68
2019-04-27T18:46:41.173Z,9.61
2019-04-27T18:49:11.319Z,9.55
2019-04-27T18:51:43.882Z,9.49
2019-04-27T18:54:12.458Z,9.43
2019-04-27T18:56:41.758Z,9.39
2019-04-27T18:59:10.324Z,9.37
2019-04-27T19:01:38.832Z,9.33
2019-04-27T19:04:08.702Z,9.28
2019-04-27T19:06:39.005Z,9.19
2019-04-27T19:09:08.326Z,9.11
2019-04-27T19:11:38.307Z,8.96
2019-04-27T19:14:08.327Z,8.76
2019-04-27T19:16:38.358Z,8.74
2019-04-27T19:19:08.688Z,8.63
2019-04-27T19:21:39.129Z,8.57
2019-04-27T19:24:08.917Z,8.49
2019-04-27T19:26:39.107Z,8.34
2019-04-27T19:29:09.258Z,8.26
2019-04-27T19:31:39.395Z,8.21
2019-04-27T19:34:07.928Z,8.19
2019-04-27T19:36:38.548Z,8.18
2019-04-27T19:39:10.426Z,8.18
2019-04-27T19:41:38.923Z,8.17
2019-04-27T19:44:09.914Z,8.04
2019-04-27T19:46:37.700Z,8.04
2019-04-27T19:49:06.222Z,8.05
2019-04-27T19:51:34.820Z,8.04
2019-04-27T19:54:03.409Z,8.09
2019-04-27T19:56:31.970Z,8.08
2019-04-27T19:59:02.105Z,7.97
2019-04-27T20:01:35.133Z,7.93
2019-04-27T20:04:05.436Z,7.89
2019-04-27T20:06:33.998Z,7.88
2019-04-27T20:09:19.247Z,7.93
2019-04-27T20:11:47.947Z,7.90
2019-04-27T20:14:16.488Z,7.97
2019-04-27T20:16:44.970Z,8.01
2019-04-27T20:19:13.449Z,8.05
2019-04-27T20:21:42.050Z,8.05
2019-04-27T20:24:11.782Z,8.09
2019-04-27T20:26:40.355Z,8.11
2019-04-27T20:29:08.849Z,8.06
2019-04-27T20:31:37.357Z,8.03
2019-04-27T20:34:05.947Z,7.97
2019-04-27T20:36:34.519Z,7.91
2019-04-27T20:39:05.747Z,7.85
2019-04-27T20:41:33.324Z,7.82
2019-04-27T20:44:02.421Z,7.79
2019-04-27T20:46:31.290Z,7.74
2019-04-27T20:49:01.442Z,7.71
2019-04-27T20:51:52.460Z,7.61
2019-04-27T20:54:21.923Z,7.61
2019-04-27T20:56:51.597Z,7.65
2019-04-27T20:59:22.096Z,7.62
2019-04-27T21:01:50.698Z,7.61
2019-04-27T21:04:21.046Z,7.61
2019-04-27T21:06:51.159Z,7.62
2019-04-27T21:09:21.276Z,7.59
2019-04-27T21:11:49.852Z,7.59
2019-04-27T21:14:18.494Z,7.51
2019-04-27T21:16:47.518Z,7.46
2019-04-27T21:19:16.016Z,7.46
2019-04-27T21:21:44.516Z,7.48
2019-04-27T21:24:13.112Z,7.42
2019-04-27T21:26:42.019Z,7.37
2019-04-27T21:29:11.709Z,7.37
2019-04-27T21:31:41.831Z,7.39
2019-04-27T21:34:10.439Z,7.41
2019-04-27T21:36:42.259Z,7.44
2019-04-27T21:39:09.369Z,7.47
2019-04-27T21:41:37.901Z,7.53
2019-04-27T21:44:06.391Z,7.53
2019-04-27T21:46:35.019Z,7.54
2019-04-27T21:49:03.540Z,7.47
2019-04-27T21:51:33.808Z,7.44
2019-04-27T21:54:03.957Z,7.44
2019-04-27T21:56:32.462Z,7.46
2019-04-27T21:59:01.115Z,7.50
2019-04-27T22:01:31.961Z,7.41
2019-04-27T22:04:01.016Z,7.40
2019-04-27T22:06:29.856Z,7.41
2019-04-27T22:08:58.428Z,7.30
2019-04-27T22:11:26.948Z,7.24
2019-04-27T22:13:55.573Z,7.15
2019-04-27T22:16:24.206Z,7.05
2019-04-27T22:18:52.740Z,6.97
2019-04-27T22:21:21.764Z,6.97
2019-04-27T22:23:54.915Z,6.98
2019-04-27T22:26:23.458Z,6.93
2019-04-27T22:28:52.246Z,6.92
2019-04-27T22:31:21.213Z,6.98
2019-04-27T22:33:52.556Z,7.06
2019-04-27T22:36:21.152Z,7.08
2019-04-27T22:38:51.523Z,7.07
2019-04-27T22:41:24.467Z,7.05
2019-04-27T22:44:06.747Z,7.01
2019-04-27T22:46:40.995Z,6.98
2019-04-27T22:49:10.986Z,6.91
2019-04-27T22:51:42.716Z,6.81
2019-04-27T22:54:11.612Z,6.57
2019-04-27T22:56:42.251Z,6.37
2019-04-27T22:59:12.505Z,6.24
2019-04-27T23:02:01.457Z,6.08
2019-04-27T23:04:34.471Z,5.91
2019-04-27T23:07:02.984Z,5.64
2019-04-27T23:09:31.625Z,5.52
2019-04-27T23:12:01.815Z,5.36
2019-04-27T23:14:31.293Z,5.22
2019-04-27T23:17:03.206Z,5.12
2019-04-27T23:19:31.726Z,5.09
2019-04-27T23:22:00.799Z,5.06
2019-04-27T23:24:31.031Z,5.01
2019-04-27T23:26:59.632Z,4.93
2019-04-27T23:29:28.131Z,4.91
2019-04-27T23:32:01.648Z,4.92
2019-04-27T23:34:31.539Z,4.88
2019-04-27T23:37:00.059Z,4.80
2019-04-27T23:39:28.547Z,4.68
2019-04-27T23:41:57.108Z,4.68
2019-04-27T23:44:25.607Z,4.64
2019-04-27T23:46:54.101Z,4.64
2019-04-27T23:49:22.701Z,4.65
2019-04-27T23:51:55.240Z,4.68
2019-04-27T23:54:23.725Z,4.72
2019-04-27T23:56:52.250Z,4.76
2019-04-27T23:59:24.901Z,4.80
